sensor_id;sensor_type;location;lat;lon;timestamp;P1;durP1;ratioP1;P2;durP2;ratioP2
75499;SDS011;64076;51.466;7.260;2023-04-03T00:00:55;5.07;;;3.70;;
75499;SDS011;64076;51.466;7.260;2023-04-03T00:03:21;5.35;;;3.65;;
75499;SDS011;64076;51.466;7.260;2023-04-03T00:05:47;5.07;;;4.00;;
75499;SDS011;64076;51.466;7.260;2023-04-03T00:08:13;4.57;;;3.85;;
75499;SDS011;64076;51.466;7.260;2023-04-03T00:10:39;5.30;;;3.60;;
75499;SDS011;64076;51.466;7.260;2023-04-03T00:13:06;5.18;;;3.90;;
75499;SDS011;64076;51.466;7.260;2023-04-03T00:15:32;4.70;;;3.80;;
75499;SDS011;64076;51.466;7.260;2023-04-03T00:17:58;4.95;;;3.50;;
75499;SDS011;64076;51.466;7.260;2023-04-03T00:20:24;5.70;;;3.83;;
75499;SDS011;64076;51.466;7.260;2023-04-03T00:22:50;4.55;;;3.92;;
75499;SDS011;64076;51.466;7.260;2023-04-03T00:25:17;4.00;;;3.50;;
75499;SDS011;64076;51.466;7.260;2023-04-03T00:27:42;3.90;;;3.30;;
75499;SDS011;64076;51.466;7.260;2023-04-03T00:30:09;4.82;;;3.40;;
75499;SDS011;64076;51.466;7.260;2023-04-03T00:32:36;4.17;;;3.60;;
75499;SDS011;64076;51.466;7.260;2023-04-03T00:35:02;5.03;;;3.78;;
75499;SDS011;64076;51.466;7.260;2023-04-03T00:37:28;5.38;;;3.67;;
75499;SDS011;64076;51.466;7.260;2023-04-03T00:39:54;5.18;;;3.67;;
75499;SDS011;64076;51.466;7.260;2023-04-03T00:42:20;5.47;;;3.67;;
75499;SDS011;64076;51.466;7.260;2023-04-03T00:47:13;4.45;;;3.58;;
75499;SDS011;64076;51.466;7.260;2023-04-03T00:49:39;5.57;;;3.80;;
75499;SDS011;64076;51.466;7.260;2023-04-03T00:52:07;4.38;;;3.72;;
75499;SDS011;64076;51.466;7.260;2023-04-03T00:54:34;5.13;;;3.70;;
75499;SDS011;64076;51.466;7.260;2023-04-03T00:57:01;5.32;;;3.55;;
75499;SDS011;64076;51.466;7.260;2023-04-03T00:59:32;5.25;;;3.30;;
75499;SDS011;64076;51.466;7.260;2023-04-03T01:01:58;5.63;;;3.50;;
75499;SDS011;64076;51.466;7.260;2023-04-03T01:04:35;4.15;;;3.47;;
75499;SDS011;64076;51.466;7.260;2023-04-03T01:07:03;3.97;;;3.40;;
75499;SDS011;64076;51.466;7.260;2023-04-03T01:09:30;5.30;;;3.90;;
75499;SDS011;64076;51.466;7.260;2023-04-03T01:14:42;4.65;;;3.45;;
75499;SDS011;64076;51.466;7.260;2023-04-03T01:17:28;3.85;;;3.40;;
75499;SDS011;64076;51.466;7.260;2023-04-03T01:22:42;5.45;;;3.83;;
75499;SDS011;64076;51.466;7.260;2023-04-03T01:25:10;5.03;;;3.72;;
75499;SDS011;64076;51.466;7.260;2023-04-03T01:27:36;4.45;;;3.30;;
75499;SDS011;64076;51.466;7.260;2023-04-03T01:30:02;4.50;;;3.90;;
75499;SDS011;64076;51.466;7.260;2023-04-03T01:32:28;4.65;;;3.65;;
75499;SDS011;64076;51.466;7.260;2023-04-03T01:34:54;5.45;;;3.83;;
75499;SDS011;64076;51.466;7.260;2023-04-03T01:37:20;4.63;;;3.60;;
75499;SDS011;64076;51.466;7.260;2023-04-03T01:39:46;4.25;;;3.50;;
75499;SDS011;64076;51.466;7.260;2023-04-03T01:42:12;4.43;;;3.23;;
75499;SDS011;64076;51.466;7.260;2023-04-03T01:44:38;4.38;;;3.67;;
75499;SDS011;64076;51.466;7.260;2023-04-03T01:47:05;4.80;;;3.75;;
75499;SDS011;64076;51.466;7.260;2023-04-03T01:49:31;4.55;;;3.63;;
75499;SDS011;64076;51.466;7.260;2023-04-03T01:51:57;4.60;;;3.47;;
75499;SDS011;64076;51.466;7.260;2023-04-03T01:54:23;4.25;;;3.63;;
75499;SDS011;64076;51.466;7.260;2023-04-03T01:56:49;5.95;;;3.50;;
75499;SDS011;64076;51.466;7.260;2023-04-03T01:59:15;4.32;;;3.70;;
75499;SDS011;64076;51.466;7.260;2023-04-03T02:01:42;4.93;;;4.00;;
75499;SDS011;64076;51.466;7.260;2023-04-03T02:04:10;4.67;;;3.90;;
75499;SDS011;64076;51.466;7.260;2023-04-03T02:06:36;5.57;;;3.90;;
75499;SDS011;64076;51.466;7.260;2023-04-03T02:09:02;5.25;;;3.70;;
75499;SDS011;64076;51.466;7.260;2023-04-03T02:11:29;4.65;;;4.03;;
75499;SDS011;64076;51.466;7.260;2023-04-03T02:13:54;4.97;;;3.40;;
75499;SDS011;64076;51.466;7.260;2023-04-03T02:16:20;5.10;;;3.90;;
75499;SDS011;64076;51.466;7.260;2023-04-03T02:18:46;5.28;;;3.97;;
75499;SDS011;64076;51.466;7.260;2023-04-03T02:21:12;6.75;;;4.13;;
75499;SDS011;64076;51.466;7.260;2023-04-03T02:23:38;5.65;;;4.40;;
75499;SDS011;64076;51.466;7.260;2023-04-03T02:26:14;5.87;;;3.60;;
75499;SDS011;64076;51.466;7.260;2023-04-03T02:28:40;5.45;;;4.35;;
75499;SDS011;64076;51.466;7.260;2023-04-03T02:31:06;4.75;;;3.22;;
75499;SDS011;64076;51.466;7.260;2023-04-03T02:33:33;4.55;;;3.70;;
75499;SDS011;64076;51.466;7.260;2023-04-03T02:36:01;6.13;;;3.67;;
75499;SDS011;64076;51.466;7.260;2023-04-03T02:38:27;5.72;;;3.63;;
75499;SDS011;64076;51.466;7.260;2023-04-03T02:40:53;4.30;;;3.50;;
75499;SDS011;64076;51.466;7.260;2023-04-03T02:43:19;4.90;;;3.83;;
75499;SDS011;64076;51.466;7.260;2023-04-03T02:45:45;5.73;;;3.90;;
75499;SDS011;64076;51.466;7.260;2023-04-03T02:48:11;4.13;;;3.50;;
75499;SDS011;64076;51.466;7.260;2023-04-03T02:50:37;5.03;;;3.30;;
75499;SDS011;64076;51.466;7.260;2023-04-03T02:53:03;5.95;;;3.85;;
75499;SDS011;64076;51.466;7.260;2023-04-03T02:55:29;4.88;;;3.50;;
75499;SDS011;64076;51.466;7.260;2023-04-03T02:57:54;6.60;;;3.50;;
75499;SDS011;64076;51.466;7.260;2023-04-03T03:00:20;4.13;;;3.20;;
75499;SDS011;64076;51.466;7.260;2023-04-03T03:02:48;5.38;;;3.22;;
75499;SDS011;64076;51.466;7.260;2023-04-03T03:05:14;6.70;;;3.28;;
75499;SDS011;64076;51.466;7.260;2023-04-03T03:07:40;4.57;;;3.63;;
75499;SDS011;64076;51.466;7.260;2023-04-03T03:10:06;4.57;;;3.10;;
75499;SDS011;64076;51.466;7.260;2023-04-03T03:12:32;3.85;;;3.25;;
75499;SDS011;64076;51.466;7.260;2023-04-03T03:14:58;4.65;;;2.80;;
75499;SDS011;64076;51.466;7.260;2023-04-03T03:17:24;4.53;;;3.57;;
75499;SDS011;64076;51.466;7.260;2023-04-03T03:19:50;3.88;;;2.70;;
75499;SDS011;64076;51.466;7.260;2023-04-03T03:22:16;4.13;;;2.90;;
75499;SDS011;64076;51.466;7.260;2023-04-03T03:24:42;5.43;;;3.17;;
75499;SDS011;64076;51.466;7.260;2023-04-03T03:27:08;4.30;;;2.93;;
75499;SDS011;64076;51.466;7.260;2023-04-03T03:29:34;4.38;;;3.10;;
75499;SDS011;64076;51.466;7.260;2023-04-03T03:32:00;4.22;;;2.80;;
75499;SDS011;64076;51.466;7.260;2023-04-03T03:34:26;5.53;;;3.17;;
75499;SDS011;64076;51.466;7.260;2023-04-03T03:36:52;3.70;;;3.10;;
75499;SDS011;64076;51.466;7.260;2023-04-03T03:39:18;4.20;;;2.67;;
75499;SDS011;64076;51.466;7.260;2023-04-03T03:41:44;4.78;;;2.97;;
75499;SDS011;64076;51.466;7.260;2023-04-03T03:44:10;3.97;;;3.15;;
75499;SDS011;64076;51.466;7.260;2023-04-03T03:46:35;4.60;;;2.87;;
75499;SDS011;64076;51.466;7.260;2023-04-03T03:49:01;5.95;;;2.95;;
75499;SDS011;64076;51.466;7.260;2023-04-03T03:51:27;4.60;;;2.58;;
75499;SDS011;64076;51.466;7.260;2023-04-03T03:53:53;4.53;;;2.97;;
75499;SDS011;64076;51.466;7.260;2023-04-03T03:56:20;4.20;;;2.80;;
75499;SDS011;64076;51.466;7.260;2023-04-03T03:58:46;4.55;;;2.63;;
75499;SDS011;64076;51.466;7.260;2023-04-03T04:01:12;4.32;;;2.67;;
75499;SDS011;64076;51.466;7.260;2023-04-03T04:03:38;4.18;;;2.30;;
75499;SDS011;64076;51.466;7.260;2023-04-03T04:06:04;5.13;;;3.45;;
75499;SDS011;64076;51.466;7.260;2023-04-03T04:08:30;4.70;;;2.93;;
75499;SDS011;64076;51.466;7.260;2023-04-03T04:10:56;3.95;;;2.50;;
75499;SDS011;64076;51.466;7.260;2023-04-03T04:13:22;3.97;;;2.25;;
75499;SDS011;64076;51.466;7.260;2023-04-03T04:15:48;4.00;;;2.80;;
75499;SDS011;64076;51.466;7.260;2023-04-03T04:18:14;3.50;;;2.27;;
75499;SDS011;64076;51.466;7.260;2023-04-03T04:20:40;3.50;;;2.10;;
75499;SDS011;64076;51.466;7.260;2023-04-03T04:23:06;4.10;;;2.55;;
75499;SDS011;64076;51.466;7.260;2023-04-03T04:25:32;4.30;;;2.67;;
75499;SDS011;64076;51.466;7.260;2023-04-03T04:27:58;3.67;;;2.77;;
75499;SDS011;64076;51.466;7.260;2023-04-03T04:30:24;4.05;;;2.40;;
75499;SDS011;64076;51.466;7.260;2023-04-03T04:32:51;4.80;;;2.47;;
75499;SDS011;64076;51.466;7.260;2023-04-03T04:35:17;4.10;;;2.20;;
75499;SDS011;64076;51.466;7.260;2023-04-03T04:37:43;3.87;;;2.13;;
75499;SDS011;64076;51.466;7.260;2023-04-03T04:40:08;3.95;;;2.33;;
75499;SDS011;64076;51.466;7.260;2023-04-03T04:42:35;3.42;;;2.40;;
75499;SDS011;64076;51.466;7.260;2023-04-03T04:45:00;3.25;;;2.22;;
75499;SDS011;64076;51.466;7.260;2023-04-03T04:47:27;4.03;;;2.27;;
75499;SDS011;64076;51.466;7.260;2023-04-03T04:49:54;4.38;;;2.67;;
75499;SDS011;64076;51.466;7.260;2023-04-03T04:52:20;4.53;;;2.53;;
75499;SDS011;64076;51.466;7.260;2023-04-03T04:54:46;3.45;;;2.00;;
75499;SDS011;64076;51.466;7.260;2023-04-03T04:57:12;5.37;;;2.70;;
75499;SDS011;64076;51.466;7.260;2023-04-03T04:59:38;3.72;;;2.22;;
75499;SDS011;64076;51.466;7.260;2023-04-03T05:02:04;3.90;;;2.22;;
75499;SDS011;64076;51.466;7.260;2023-04-03T05:04:30;5.07;;;2.20;;
75499;SDS011;64076;51.466;7.260;2023-04-03T05:06:56;6.27;;;2.20;;
75499;SDS011;64076;51.466;7.260;2023-04-03T05:09:22;3.60;;;2.10;;
75499;SDS011;64076;51.466;7.260;2023-04-03T05:11:48;4.30;;;2.17;;
75499;SDS011;64076;51.466;7.260;2023-04-03T05:14:14;4.10;;;2.40;;
75499;SDS011;64076;51.466;7.260;2023-04-03T05:16:40;4.13;;;2.10;;
75499;SDS011;64076;51.466;7.260;2023-04-03T05:19:06;4.40;;;2.40;;
75499;SDS011;64076;51.466;7.260;2023-04-03T05:21:32;4.70;;;1.98;;
75499;SDS011;64076;51.466;7.260;2023-04-03T05:23:58;3.28;;;1.67;;
75499;SDS011;64076;51.466;7.260;2023-04-03T05:26:27;4.03;;;1.90;;
75499;SDS011;64076;51.466;7.260;2023-04-03T05:28:53;3.88;;;1.90;;
75499;SDS011;64076;51.466;7.260;2023-04-03T05:31:18;2.93;;;1.60;;
75499;SDS011;64076;51.466;7.260;2023-04-03T05:33:44;3.33;;;1.65;;
75499;SDS011;64076;51.466;7.260;2023-04-03T05:36:10;2.40;;;1.42;;
75499;SDS011;64076;51.466;7.260;2023-04-03T05:38:37;3.50;;;1.73;;
75499;SDS011;64076;51.466;7.260;2023-04-03T05:41:03;2.72;;;1.45;;
75499;SDS011;64076;51.466;7.260;2023-04-03T05:43:29;2.93;;;1.77;;
75499;SDS011;64076;51.466;7.260;2023-04-03T05:45:54;2.22;;;1.60;;
75499;SDS011;64076;51.466;7.260;2023-04-03T05:48:20;2.17;;;1.50;;
75499;SDS011;64076;51.466;7.260;2023-04-03T05:50:46;1.90;;;1.30;;
75499;SDS011;64076;51.466;7.260;2023-04-03T05:53:30;2.10;;;1.17;;
75499;SDS011;64076;51.466;7.260;2023-04-03T05:55:58;2.08;;;1.20;;
75499;SDS011;64076;51.466;7.260;2023-04-03T05:58:23;2.13;;;1.40;;
75499;SDS011;64076;51.466;7.260;2023-04-03T06:00:49;1.95;;;1.20;;
75499;SDS011;64076;51.466;7.260;2023-04-03T06:03:15;2.57;;;1.30;;
75499;SDS011;64076;51.466;7.260;2023-04-03T06:05:41;2.78;;;1.15;;
75499;SDS011;64076;51.466;7.260;2023-04-03T06:08:07;2.92;;;1.30;;
75499;SDS011;64076;51.466;7.260;2023-04-03T06:10:34;2.40;;;1.10;;
75499;SDS011;64076;51.466;7.260;2023-04-03T06:13:00;2.90;;;0.90;;
75499;SDS011;64076;51.466;7.260;2023-04-03T06:15:26;2.10;;;0.95;;
75499;SDS011;64076;51.466;7.260;2023-04-03T06:17:52;2.43;;;1.03;;
75499;SDS011;64076;51.466;7.260;2023-04-03T06:20:17;2.35;;;1.10;;
75499;SDS011;64076;51.466;7.260;2023-04-03T06:22:43;1.87;;;1.00;;
75499;SDS011;64076;51.466;7.260;2023-04-03T06:25:08;2.30;;;0.93;;
75499;SDS011;64076;51.466;7.260;2023-04-03T06:27:35;2.60;;;1.20;;
75499;SDS011;64076;51.466;7.260;2023-04-03T06:30:00;2.60;;;1.35;;
75499;SDS011;64076;51.466;7.260;2023-04-03T06:32:26;1.85;;;1.20;;
75499;SDS011;64076;51.466;7.260;2023-04-03T06:34:52;2.90;;;1.17;;
75499;SDS011;64076;51.466;7.260;2023-04-03T06:37:19;2.08;;;1.10;;
75499;SDS011;64076;51.466;7.260;2023-04-03T06:39:46;1.95;;;1.10;;
75499;SDS011;64076;51.466;7.260;2023-04-03T06:42:12;2.00;;;1.20;;
75499;SDS011;64076;51.466;7.260;2023-04-03T06:44:38;2.28;;;1.10;;
75499;SDS011;64076;51.466;7.260;2023-04-03T06:47:04;2.70;;;0.98;;
75499;SDS011;64076;51.466;7.260;2023-04-03T06:49:30;1.95;;;1.02;;
75499;SDS011;64076;51.466;7.260;2023-04-03T06:51:56;2.33;;;1.00;;
75499;SDS011;64076;51.466;7.260;2023-04-03T06:54:22;2.72;;;1.30;;
75499;SDS011;64076;51.466;7.260;2023-04-03T06:56:47;1.83;;;1.20;;
75499;SDS011;64076;51.466;7.260;2023-04-03T06:59:14;2.13;;;1.15;;
75499;SDS011;64076;51.466;7.260;2023-04-03T07:01:40;2.00;;;1.13;;
75499;SDS011;64076;51.466;7.260;2023-04-03T07:04:06;4.35;;;1.10;;
75499;SDS011;64076;51.466;7.260;2023-04-03T07:06:33;3.47;;;1.10;;
75499;SDS011;64076;51.466;7.260;2023-04-03T07:08:59;2.50;;;1.00;;
75499;SDS011;64076;51.466;7.260;2023-04-03T07:11:25;2.90;;;1.20;;
75499;SDS011;64076;51.466;7.260;2023-04-03T07:13:51;2.17;;;1.00;;
75499;SDS011;64076;51.466;7.260;2023-04-03T07:16:16;2.60;;;1.08;;
75499;SDS011;64076;51.466;7.260;2023-04-03T07:18:42;2.57;;;1.37;;
75499;SDS011;64076;51.466;7.260;2023-04-03T07:21:08;2.25;;;1.00;;
75499;SDS011;64076;51.466;7.260;2023-04-03T07:23:33;1.93;;;0.97;;
75499;SDS011;64076;51.466;7.260;2023-04-03T07:25:59;2.67;;;1.20;;
75499;SDS011;64076;51.466;7.260;2023-04-03T07:28:24;2.47;;;1.02;;
75499;SDS011;64076;51.466;7.260;2023-04-03T07:30:52;3.03;;;1.10;;
75499;SDS011;64076;51.466;7.260;2023-04-03T07:33:28;2.45;;;1.00;;
75499;SDS011;64076;51.466;7.260;2023-04-03T07:35:54;2.67;;;0.90;;
75499;SDS011;64076;51.466;7.260;2023-04-03T07:38:20;2.17;;;0.90;;
75499;SDS011;64076;51.466;7.260;2023-04-03T07:40:46;3.83;;;1.10;;
75499;SDS011;64076;51.466;7.260;2023-04-03T07:43:14;2.05;;;1.02;;
75499;SDS011;64076;51.466;7.260;2023-04-03T07:45:40;1.80;;;1.15;;
75499;SDS011;64076;51.466;7.260;2023-04-03T07:48:06;2.50;;;1.00;;
75499;SDS011;64076;51.466;7.260;2023-04-03T07:50:32;2.07;;;1.10;;
75499;SDS011;64076;51.466;7.260;2023-04-03T07:52:58;1.92;;;0.90;;
75499;SDS011;64076;51.466;7.260;2023-04-03T07:55:24;2.63;;;0.90;;
75499;SDS011;64076;51.466;7.260;2023-04-03T07:57:50;2.10;;;1.10;;
75499;SDS011;64076;51.466;7.260;2023-04-03T08:00:16;2.33;;;1.20;;
75499;SDS011;64076;51.466;7.260;2023-04-03T08:02:42;2.65;;;0.80;;
75499;SDS011;64076;51.466;7.260;2023-04-03T08:05:09;2.53;;;1.20;;
75499;SDS011;64076;51.466;7.260;2023-04-03T08:07:36;3.27;;;1.73;;
75499;SDS011;64076;51.466;7.260;2023-04-03T08:10:02;2.78;;;1.10;;
75499;SDS011;64076;51.466;7.260;2023-04-03T08:12:28;2.78;;;1.10;;
75499;SDS011;64076;51.466;7.260;2023-04-03T08:14:54;4.07;;;1.40;;
75499;SDS011;64076;51.466;7.260;2023-04-03T08:17:20;4.47;;;1.60;;
75499;SDS011;64076;51.466;7.260;2023-04-03T08:19:46;2.50;;;1.33;;
75499;SDS011;64076;51.466;7.260;2023-04-03T08:22:12;3.30;;;1.20;;
75499;SDS011;64076;51.466;7.260;2023-04-03T08:24:37;2.37;;;1.33;;
75499;SDS011;64076;51.466;7.260;2023-04-03T08:27:03;3.53;;;1.50;;
75499;SDS011;64076;51.466;7.260;2023-04-03T08:29:29;3.00;;;1.30;;
75499;SDS011;64076;51.466;7.260;2023-04-03T08:31:54;2.63;;;1.43;;
75499;SDS011;64076;51.466;7.260;2023-04-03T08:34:20;2.80;;;1.48;;
75499;SDS011;64076;51.466;7.260;2023-04-03T08:36:46;3.40;;;1.42;;
75499;SDS011;64076;51.466;7.260;2023-04-03T08:39:12;2.63;;;1.20;;
75499;SDS011;64076;51.466;7.260;2023-04-03T08:41:39;1.85;;;1.00;;
75499;SDS011;64076;51.466;7.260;2023-04-03T08:44:14;1.83;;;0.80;;
75499;SDS011;64076;51.466;7.260;2023-04-03T08:52:14;2.15;;;0.93;;
75499;SDS011;64076;51.466;7.260;2023-04-03T08:54:57;1.90;;;0.90;;
75499;SDS011;64076;51.466;7.260;2023-04-03T08:57:41;2.00;;;0.80;;
75499;SDS011;64076;51.466;7.260;2023-04-03T09:00:16;2.13;;;1.13;;
75499;SDS011;64076;51.466;7.260;2023-04-03T09:02:47;2.50;;;0.80;;
75499;SDS011;64076;51.466;7.260;2023-04-03T09:05:15;2.67;;;1.00;;
75499;SDS011;64076;51.466;7.260;2023-04-03T09:07:59;2.30;;;0.82;;
75499;SDS011;64076;51.466;7.260;2023-04-03T09:10:32;2.30;;;1.10;;
75499;SDS011;64076;51.466;7.260;2023-04-03T09:12:59;2.05;;;0.80;;
75499;SDS011;64076;51.466;7.260;2023-04-03T09:15:32;1.50;;;0.60;;
75499;SDS011;64076;51.466;7.260;2023-04-03T09:23:46;2.73;;;0.60;;
75499;SDS011;64076;51.466;7.260;2023-04-03T09:26:19;2.38;;;0.95;;
75499;SDS011;64076;51.466;7.260;2023-04-03T09:28:54;2.15;;;0.70;;
75499;SDS011;64076;51.466;7.260;2023-04-03T09:31:24;1.60;;;0.65;;
75499;SDS011;64076;51.466;7.260;2023-04-03T09:33:56;1.58;;;0.70;;
75499;SDS011;64076;51.466;7.260;2023-04-03T09:36:51;2.40;;;0.80;;
75499;SDS011;64076;51.466;7.260;2023-04-03T09:39:19;1.50;;;0.60;;
75499;SDS011;64076;51.466;7.260;2023-04-03T09:44:27;1.48;;;0.60;;
75499;SDS011;64076;51.466;7.260;2023-04-03T09:46:58;2.10;;;0.80;;
75499;SDS011;64076;51.466;7.260;2023-04-03T09:49:23;1.77;;;0.70;;
75499;SDS011;64076;51.466;7.260;2023-04-03T09:51:49;3.05;;;0.85;;
75499;SDS011;64076;51.466;7.260;2023-04-03T09:56:55;1.42;;;0.63;;
75499;SDS011;64076;51.466;7.260;2023-04-03T09:59:23;1.30;;;0.57;;
75499;SDS011;64076;51.466;7.260;2023-04-03T10:01:59;1.63;;;0.60;;
75499;SDS011;64076;51.466;7.260;2023-04-03T10:04:37;1.20;;;0.50;;
75499;SDS011;64076;51.466;7.260;2023-04-03T10:07:04;2.40;;;0.70;;
75499;SDS011;64076;51.466;7.260;2023-04-03T10:09:56;2.33;;;0.82;;
75499;SDS011;64076;51.466;7.260;2023-04-03T10:12:26;2.90;;;0.80;;
75499;SDS011;64076;51.466;7.260;2023-04-03T10:19:59;4.60;;;0.90;;
75499;SDS011;64076;51.466;7.260;2023-04-03T10:25:02;5.07;;;1.08;;
75499;SDS011;64076;51.466;7.260;2023-04-03T10:28:01;5.90;;;1.10;;
75499;SDS011;64076;51.466;7.260;2023-04-03T10:33:30;4.20;;;0.90;;
75499;SDS011;64076;51.466;7.260;2023-04-03T10:36:16;4.17;;;0.73;;
75499;SDS011;64076;51.466;7.260;2023-04-03T10:52:35;2.10;;;0.80;;
75499;SDS011;64076;51.466;7.260;2023-04-03T10:57:49;2.15;;;0.80;;
75499;SDS011;64076;51.466;7.260;2023-04-03T11:00:16;2.90;;;1.00;;
75499;SDS011;64076;51.466;7.260;2023-04-03T11:02:49;4.00;;;0.90;;
75499;SDS011;64076;51.466;7.260;2023-04-03T11:05:29;3.45;;;0.80;;
75499;SDS011;64076;51.466;7.260;2023-04-03T11:08:21;2.08;;;0.60;;
75499;SDS011;64076;51.466;7.260;2023-04-03T11:10:59;1.43;;;0.60;;
75499;SDS011;64076;51.466;7.260;2023-04-03T11:13:33;2.45;;;0.70;;
75499;SDS011;64076;51.466;7.260;2023-04-03T11:16:08;1.88;;;0.60;;
75499;SDS011;64076;51.466;7.260;2023-04-03T11:23:49;1.93;;;0.50;;
75499;SDS011;64076;51.466;7.260;2023-04-03T11:26:18;3.33;;;0.80;;
75499;SDS011;64076;51.466;7.260;2023-04-03T11:28:51;2.10;;;0.70;;
75499;SDS011;64076;51.466;7.260;2023-04-03T11:34:19;1.90;;;0.70;;
75499;SDS011;64076;51.466;7.260;2023-04-03T11:37:04;1.70;;;0.63;;
75499;SDS011;64076;51.466;7.260;2023-04-03T11:39:37;1.25;;;0.50;;
75499;SDS011;64076;51.466;7.260;2023-04-03T11:42:13;1.60;;;0.63;;
75499;SDS011;64076;51.466;7.260;2023-04-03T11:44:39;2.05;;;0.80;;
75499;SDS011;64076;51.466;7.260;2023-04-03T11:47:05;1.80;;;0.67;;
75499;SDS011;64076;51.466;7.260;2023-04-03T12:19:32;1.40;;;0.50;;
75499;SDS011;64076;51.466;7.260;2023-04-03T12:24:27;1.70;;;0.77;;
75499;SDS011;64076;51.466;7.260;2023-04-03T12:41:18;2.00;;;0.95;;
75499;SDS011;64076;51.466;7.260;2023-04-03T12:46:44;1.85;;;0.70;;
75499;SDS011;64076;51.466;7.260;2023-04-03T12:49:54;1.75;;;0.90;;
75499;SDS011;64076;51.466;7.260;2023-04-03T12:52:04;2.25;;;0.80;;
75499;SDS011;64076;51.466;7.260;2023-04-03T12:54:42;2.42;;;0.85;;
75499;SDS011;64076;51.466;7.260;2023-04-03T12:59:40;2.17;;;0.75;;
75499;SDS011;64076;51.466;7.260;2023-04-03T13:04:58;3.17;;;0.75;;
75499;SDS011;64076;51.466;7.260;2023-04-03T13:07:30;2.95;;;0.80;;
75499;SDS011;64076;51.466;7.260;2023-04-03T13:10:13;2.23;;;0.80;;
75499;SDS011;64076;51.466;7.260;2023-04-03T13:17:50;2.03;;;0.60;;
75499;SDS011;64076;51.466;7.260;2023-04-03T13:20:23;2.78;;;0.75;;
75499;SDS011;64076;51.466;7.260;2023-04-03T13:22:52;1.53;;;0.60;;
75499;SDS011;64076;51.466;7.260;2023-04-03T13:25:26;4.18;;;0.85;;
75499;SDS011;64076;51.466;7.260;2023-04-03T13:27:54;1.80;;;0.60;;
75499;SDS011;64076;51.466;7.260;2023-04-03T13:30:26;2.38;;;0.60;;
75499;SDS011;64076;51.466;7.260;2023-04-03T13:32:56;1.55;;;0.63;;
75499;SDS011;64076;51.466;7.260;2023-04-03T13:35:32;2.83;;;0.80;;
75499;SDS011;64076;51.466;7.260;2023-04-03T13:37:59;2.53;;;0.70;;
75499;SDS011;64076;51.466;7.260;2023-04-03T13:40:27;2.00;;;0.60;;
75499;SDS011;64076;51.466;7.260;2023-04-03T13:43:01;3.97;;;0.60;;
75499;SDS011;64076;51.466;7.260;2023-04-03T13:45:32;2.75;;;0.73;;
75499;SDS011;64076;51.466;7.260;2023-04-03T13:48:18;2.35;;;0.70;;
75499;SDS011;64076;51.466;7.260;2023-04-03T13:51:01;2.35;;;0.70;;
75499;SDS011;64076;51.466;7.260;2023-04-03T13:53:44;2.10;;;0.73;;
75499;SDS011;64076;51.466;7.260;2023-04-03T13:56:17;3.37;;;0.70;;
75499;SDS011;64076;51.466;7.260;2023-04-03T13:58:53;1.77;;;0.90;;
75499;SDS011;64076;51.466;7.260;2023-04-03T14:01:21;4.32;;;0.98;;
75499;SDS011;64076;51.466;7.260;2023-04-03T14:06:19;1.58;;;0.50;;
75499;SDS011;64076;51.466;7.260;2023-04-03T14:08:45;2.20;;;0.60;;
75499;SDS011;64076;51.466;7.260;2023-04-03T14:11:15;1.38;;;0.60;;
75499;SDS011;64076;51.466;7.260;2023-04-03T14:13:43;1.40;;;0.70;;
75499;SDS011;64076;51.466;7.260;2023-04-03T14:16:29;2.33;;;0.80;;
75499;SDS011;64076;51.466;7.260;2023-04-03T14:18:57;1.77;;;0.73;;
75499;SDS011;64076;51.466;7.260;2023-04-03T14:21:23;2.40;;;0.73;;
75499;SDS011;64076;51.466;7.260;2023-04-03T14:23:49;1.93;;;0.67;;
75499;SDS011;64076;51.466;7.260;2023-04-03T14:26:17;2.15;;;0.60;;
75499;SDS011;64076;51.466;7.260;2023-04-03T14:28:46;2.67;;;1.00;;
75499;SDS011;64076;51.466;7.260;2023-04-03T14:31:13;2.47;;;0.88;;
75499;SDS011;64076;51.466;7.260;2023-04-03T14:33:40;3.08;;;0.80;;
75499;SDS011;64076;51.466;7.260;2023-04-03T14:36:16;3.73;;;0.60;;
75499;SDS011;64076;51.466;7.260;2023-04-03T14:38:45;1.50;;;0.60;;
75499;SDS011;64076;51.466;7.260;2023-04-03T14:41:15;2.33;;;0.60;;
75499;SDS011;64076;51.466;7.260;2023-04-03T14:43:43;1.90;;;0.60;;
75499;SDS011;64076;51.466;7.260;2023-04-03T14:46:26;2.10;;;0.80;;
75499;SDS011;64076;51.466;7.260;2023-04-03T14:48:59;1.73;;;0.70;;
75499;SDS011;64076;51.466;7.260;2023-04-03T14:51:25;1.75;;;0.70;;
75499;SDS011;64076;51.466;7.260;2023-04-03T14:53:51;1.45;;;0.60;;
75499;SDS011;64076;51.466;7.260;2023-04-03T14:56:18;1.43;;;0.50;;
75499;SDS011;64076;51.466;7.260;2023-04-03T14:58:48;1.55;;;0.65;;
75499;SDS011;64076;51.466;7.260;2023-04-03T15:01:17;2.30;;;0.60;;
75499;SDS011;64076;51.466;7.260;2023-04-03T15:03:43;1.73;;;0.73;;
75499;SDS011;64076;51.466;7.260;2023-04-03T15:06:10;1.83;;;0.70;;
75499;SDS011;64076;51.466;7.260;2023-04-03T15:08:37;1.52;;;0.73;;
75499;SDS011;64076;51.466;7.260;2023-04-03T15:11:03;1.50;;;0.70;;
75499;SDS011;64076;51.466;7.260;2023-04-03T15:13:30;1.38;;;0.60;;
75499;SDS011;64076;51.466;7.260;2023-04-03T15:15:55;1.60;;;0.60;;
75499;SDS011;64076;51.466;7.260;2023-04-03T15:18:25;1.37;;;0.60;;
75499;SDS011;64076;51.466;7.260;2023-04-03T15:20:55;1.27;;;0.68;;
75499;SDS011;64076;51.466;7.260;2023-04-03T15:23:20;1.42;;;0.60;;
75499;SDS011;64076;51.466;7.260;2023-04-03T15:25:51;1.42;;;0.70;;
75499;SDS011;64076;51.466;7.260;2023-04-03T15:28:28;1.40;;;0.60;;
75499;SDS011;64076;51.466;7.260;2023-04-03T15:30:56;2.45;;;0.80;;
75499;SDS011;64076;51.466;7.260;2023-04-03T15:33:22;1.25;;;0.50;;
75499;SDS011;64076;51.466;7.260;2023-04-03T15:35:49;1.50;;;0.57;;
75499;SDS011;64076;51.466;7.260;2023-04-03T15:38:14;1.83;;;0.70;;
75499;SDS011;64076;51.466;7.260;2023-04-03T15:40:40;1.70;;;0.70;;
75499;SDS011;64076;51.466;7.260;2023-04-03T15:43:06;4.63;;;0.82;;
75499;SDS011;64076;51.466;7.260;2023-04-03T15:45:32;8.32;;;1.52;;
75499;SDS011;64076;51.466;7.260;2023-04-03T15:47:59;6.85;;;1.60;;
75499;SDS011;64076;51.466;7.260;2023-04-03T15:50:26;8.98;;;1.30;;
75499;SDS011;64076;51.466;7.260;2023-04-03T15:52:52;5.87;;;1.00;;
75499;SDS011;64076;51.466;7.260;2023-04-03T15:55:23;11.50;;;1.50;;
75499;SDS011;64076;51.466;7.260;2023-04-03T15:57:50;9.95;;;1.55;;
75499;SDS011;64076;51.466;7.260;2023-04-03T16:00:16;6.30;;;1.30;;
75499;SDS011;64076;51.466;7.260;2023-04-03T16:02:42;7.25;;;1.27;;
75499;SDS011;64076;51.466;7.260;2023-04-03T16:05:09;5.05;;;1.23;;
75499;SDS011;64076;51.466;7.260;2023-04-03T16:07:37;4.78;;;1.10;;
75499;SDS011;64076;51.466;7.260;2023-04-03T16:10:04;5.30;;;1.10;;
75499;SDS011;64076;51.466;7.260;2023-04-03T16:12:31;3.80;;;1.27;;
75499;SDS011;64076;51.466;7.260;2023-04-03T16:14:56;4.47;;;1.55;;
75499;SDS011;64076;51.466;7.260;2023-04-03T16:17:22;8.03;;;1.60;;
75499;SDS011;64076;51.466;7.260;2023-04-03T16:19:47;10.77;;;2.22;;
75499;SDS011;64076;51.466;7.260;2023-04-03T16:22:16;10.23;;;1.90;;
75499;SDS011;64076;51.466;7.260;2023-04-03T16:24:42;12.93;;;2.88;;
75499;SDS011;64076;51.466;7.260;2023-04-03T16:27:07;19.03;;;3.40;;
75499;SDS011;64076;51.466;7.260;2023-04-03T16:29:33;17.70;;;3.57;;
75499;SDS011;64076;51.466;7.260;2023-04-03T16:31:59;13.57;;;2.80;;
75499;SDS011;64076;51.466;7.260;2023-04-03T16:34:24;13.10;;;2.60;;
75499;SDS011;64076;51.466;7.260;2023-04-03T16:36:51;10.80;;;2.78;;
75499;SDS011;64076;51.466;7.260;2023-04-03T16:39:17;9.27;;;1.83;;
75499;SDS011;64076;51.466;7.260;2023-04-03T16:41:43;11.02;;;2.63;;
75499;SDS011;64076;51.466;7.260;2023-04-03T16:44:10;10.25;;;2.22;;
75499;SDS011;64076;51.466;7.260;2023-04-03T16:46:36;9.40;;;2.60;;
75499;SDS011;64076;51.466;7.260;2023-04-03T16:49:01;10.45;;;2.40;;
75499;SDS011;64076;51.466;7.260;2023-04-03T16:51:27;8.00;;;2.33;;
75499;SDS011;64076;51.466;7.260;2023-04-03T16:53:53;7.88;;;1.98;;
75499;SDS011;64076;51.466;7.260;2023-04-03T16:56:18;9.70;;;1.90;;